Roswell International Air Center Airport
KROW : now visible

Airfield :











YOU CAN JOIN US ON...

 
LOGIN :

Register | Disclaimer

   EN    FR    IT 

 









Legend :    VFR   Marginal VFR   IFR   Intensive IFR   Very Intensive IFR
Visi :
Ceiling :
>= 8 km
>= 3000ft
5 to 8 km
1000 to 3000 ft
1500m to 5 km
500 to 1000 ft
800 to 1500m
200 to 500 ft
< 800m
< 200 ft
Symbols :   Thunderstorms  Fog  Heavy snow  Heavy precipitations  Wind > 20 kt






- Airport Elevation : 3671 ft
- IATA code : ROW


KROW - Roswell International Air Center

CURRENT METAR :
  • 120635Z AUTO 25008KT 3/4SM BR VV002 06/04 A3017 RMK AO2 T00560044 $

EXPIRED METARs :
  • 120615Z AUTO 22008KT 1 3/4SM BR OVC002 06/05 A3015 RMK AO2 T00610050 $
  • 120551Z AUTO 19010KT 5SM BR OVC003 07/05 A3016 RMK AO2 SLP199 T00670050 10072 20061 $
  • 120517Z AUTO 19010KT 5SM BR OVC003 07/06 A3017 RMK AO2 T00720056 $
  • 120451Z AUTO 17011KT 5SM BR 07/06 A3016 RMK AO2 SLP202 T00720056 $
  • 120434Z 17009KT 6SM BR OVC004 07/06 A3017 RMK AO2 T00720056
  • 120351Z 20003KT 8SM OVC005 07/06 A3019 RMK AO2 SLP211 T00720056

TAF KROW
Valid from the 12 at 06:00 until the 13 at 06:00 UTC


120526Z 1206/1306 19008KT 4SM BR OVC003
FM120900 20005KT 3/4SM BR OVC002
FM121400 27005KT 4SM BR SCT005
FM121700 32006KT P6SM SCT250



MET'MAP, your aeronautical weather chart ! - Copyright ORBIFLY December 2007 - Disclaimer

ORBIFLY MET'MAP TEAM :

Programming & Development : Alexandra Zaïnal
Concept & original design : Baudouin d'Aumeries
Assistance for programming : Marc-Olivier Méhu
Technical & hardware support : Manuel Goepfert

Contact : metmap@orbifly.com




SOURCES & CREDITS :

   NOAA       Earth
Advisory